AAR506 RKPC-RKSS
Flight info
| Callsign | AAR506 |
|---|---|
| Flight time | 0h 44m |
| Altitude | 23000 |
| Route | KAMIT Y722 OLMEN |
| Aircraft | A21N/M-SDE2E3FGHIRWXY/LB1 |
Departure
| Time | 2026-05-05 12:57 |
|---|---|
| Airport | Jeju International Airport (RKPC) |
Arrival
| Time | 2026-05-05 13:42 |
|---|---|
| Airport | Gimpo International Airport (RKSS) |
| Time | Latitude | Longitude | Altitude | Speed | Heading |
|---|---|---|---|---|---|
| 2026-05-05 12:41 | 33.50904 | 126.49199 | 137 ft | 0 kts | 329° |
| 2026-05-05 12:51 | 33.50912 | 126.49194 | 137 ft | 5 kts | 329° |
| 2026-05-05 12:52 | 33.50950 | 126.49164 | 137 ft | 8 kts | 316° |
| 2026-05-05 12:52 | 33.50954 | 126.49106 | 138 ft | 7 kts | 247° |
| 2026-05-05 12:52 | 33.50917 | 126.49033 | 138 ft | 14 kts | 238° |
| 2026-05-05 12:52 | 33.50861 | 126.48925 | 138 ft | 17 kts | 237° |
| 2026-05-05 12:53 | 33.50795 | 126.48797 | 138 ft | 20 kts | 239° |
| 2026-05-05 12:53 | 33.50719 | 126.48647 | 138 ft | 22 kts | 238° |
| 2026-05-05 12:53 | 33.50637 | 126.48487 | 138 ft | 22 kts | 239° |
| 2026-05-05 12:53 | 33.50555 | 126.48328 | 137 ft | 24 kts | 238° |
| 2026-05-05 12:54 | 33.50364 | 126.47965 | 138 ft | 27 kts | 236° |
| 2026-05-05 12:54 | 33.50264 | 126.47765 | 138 ft | 26 kts | 239° |
| 2026-05-05 12:54 | 33.50172 | 126.47584 | 138 ft | 26 kts | 238° |
| 2026-05-05 12:55 | 33.50075 | 126.47395 | 138 ft | 24 kts | 239° |
| 2026-05-05 12:55 | 33.49988 | 126.47225 | 137 ft | 24 kts | 239° |
| 2026-05-05 12:55 | 33.49902 | 126.47060 | 137 ft | 23 kts | 238° |
| 2026-05-05 12:55 | 33.49889 | 126.46944 | 137 ft | 7 kts | 310° |
| 2026-05-05 12:56 | 33.49895 | 126.46938 | 137 ft | 0 kts | 318° |
| 2026-05-05 12:56 | 33.49901 | 126.46931 | 137 ft | 8 kts | 320° |
| 2026-05-05 12:56 | 33.50002 | 126.46904 | 137 ft | 20 kts | 27° |
| 2026-05-05 12:56 | 33.50099 | 126.47058 | 136 ft | 44 kts | 57° |
| 2026-05-05 12:57 | 33.50361 | 126.47573 | 139 ft | 103 kts | 58° |
| 2026-05-05 12:57 | 33.50856 | 126.48528 | 140 ft | 163 kts | 58° |
| 2026-05-05 12:57 | 33.51483 | 126.49761 | 482 ft | 176 kts | 59° |
| 2026-05-05 12:57 | 33.52128 | 126.50993 | 1167 ft | 173 kts | 58° |
| 2026-05-05 12:58 | 33.52901 | 126.52076 | 1801 ft | 173 kts | 44° |
| 2026-05-05 12:58 | 33.53861 | 126.53110 | 2082 ft | 199 kts | 43° |
| 2026-05-05 12:58 | 33.54968 | 126.54280 | 2301 ft | 225 kts | 43° |
| 2026-05-05 12:58 | 33.56202 | 126.55611 | 2490 ft | 253 kts | 43° |
| 2026-05-05 12:59 | 33.57525 | 126.57061 | 2940 ft | 267 kts | 43° |
| 2026-05-05 12:59 | 33.58896 | 126.58575 | 3752 ft | 268 kts | 42° |
| 2026-05-05 12:59 | 33.60265 | 126.60095 | 4619 ft | 268 kts | 42° |
| 2026-05-05 13:00 | 33.63456 | 126.62349 | 6157 ft | 273 kts | 15° |
| 2026-05-05 13:00 | 33.64681 | 126.62739 | 6655 ft | 276 kts | 12° |
| 2026-05-05 13:01 | 33.71078 | 126.64318 | 9171 ft | 289 kts | 10° |
| 2026-05-05 13:01 | 33.73064 | 126.64786 | 9943 ft | 293 kts | 10° |
| 2026-05-05 13:01 | 33.75088 | 126.65262 | 10418 ft | 306 kts | 10° |
| 2026-05-05 13:01 | 33.77251 | 126.65769 | 10685 ft | 327 kts | 10° |
| 2026-05-05 13:02 | 33.79550 | 126.66309 | 10952 ft | 347 kts | 10° |
| 2026-05-05 13:02 | 33.81982 | 126.66880 | 11226 ft | 366 kts | 10° |
| 2026-05-05 13:02 | 33.84538 | 126.67482 | 11493 ft | 383 kts | 10° |
| 2026-05-05 13:02 | 33.86286 | 126.67894 | 11750 ft | 390 kts | 10° |
| 2026-05-05 13:03 | 33.89846 | 126.68734 | 12484 ft | 397 kts | 10° |
| 2026-05-05 13:03 | 33.92572 | 126.69378 | 13077 ft | 401 kts | 10° |
| 2026-05-05 13:03 | 33.95325 | 126.70028 | 13676 ft | 405 kts | 9° |
| 2026-05-05 13:03 | 33.98101 | 126.70684 | 14233 ft | 409 kts | 9° |
| 2026-05-05 13:04 | 34.00902 | 126.71346 | 14725 ft | 412 kts | 9° |
| 2026-05-05 13:04 | 34.02770 | 126.71788 | 15056 ft | 414 kts | 9° |
| 2026-05-05 13:04 | 34.05608 | 126.72459 | 15539 ft | 417 kts | 9° |
| 2026-05-05 13:04 | 34.09438 | 126.73367 | 16199 ft | 421 kts | 9° |
| 2026-05-05 13:05 | 34.11349 | 126.73819 | 16526 ft | 423 kts | 9° |
| 2026-05-05 13:05 | 34.15233 | 126.74741 | 17162 ft | 427 kts | 9° |
| 2026-05-05 13:05 | 34.18123 | 126.75426 | 17642 ft | 431 kts | 9° |
| 2026-05-05 13:05 | 34.21073 | 126.76127 | 18127 ft | 433 kts | 9° |
| 2026-05-05 13:06 | 34.23077 | 126.76604 | 18439 ft | 435 kts | 9° |
| 2026-05-05 13:06 | 34.26028 | 126.77211 | 18827 ft | 438 kts | 6° |
| 2026-05-05 13:06 | 34.30089 | 126.77778 | 19344 ft | 441 kts | 3° |
| 2026-05-05 13:06 | 34.32112 | 126.77998 | 19603 ft | 442 kts | 2° |
| 2026-05-05 13:07 | 34.36235 | 126.78398 | 20144 ft | 446 kts | 2° |
| 2026-05-05 13:07 | 34.38288 | 126.78591 | 20413 ft | 448 kts | 2° |
| 2026-05-05 13:07 | 34.41403 | 126.78890 | 20822 ft | 450 kts | 2° |
| 2026-05-05 13:07 | 34.44538 | 126.79201 | 21209 ft | 453 kts | 2° |
| 2026-05-05 13:08 | 34.48713 | 126.79631 | 21715 ft | 457 kts | 2° |
| 2026-05-05 13:08 | 34.50861 | 126.79857 | 21981 ft | 459 kts | 2° |
| 2026-05-05 13:08 | 34.54005 | 126.80192 | 22350 ft | 461 kts | 2° |
| 2026-05-05 13:08 | 34.57214 | 126.80535 | 22724 ft | 464 kts | 2° |
| 2026-05-05 13:09 | 34.60438 | 126.80881 | 23053 ft | 467 kts | 2° |
| 2026-05-05 13:09 | 34.63672 | 126.81229 | 23138 ft | 467 kts | 2° |
| 2026-05-05 13:09 | 34.66906 | 126.81577 | 23137 ft | 467 kts | 2° |
| 2026-05-05 13:09 | 34.70146 | 126.81925 | 23135 ft | 468 kts | 2° |
| 2026-05-05 13:10 | 34.73382 | 126.82273 | 23139 ft | 468 kts | 2° |
| 2026-05-05 13:10 | 34.76626 | 126.82621 | 23137 ft | 468 kts | 2° |
| 2026-05-05 13:10 | 34.79869 | 126.82970 | 23134 ft | 468 kts | 2° |
| 2026-05-05 13:10 | 34.83066 | 126.83313 | 23133 ft | 468 kts | 2° |
| 2026-05-05 13:11 | 34.86309 | 126.83662 | 23135 ft | 468 kts | 2° |
| 2026-05-05 13:11 | 34.89553 | 126.84012 | 23135 ft | 468 kts | 2° |
| 2026-05-05 13:11 | 34.92795 | 126.84361 | 23134 ft | 468 kts | 2° |
| 2026-05-05 13:11 | 34.96034 | 126.84711 | 23138 ft | 468 kts | 2° |
| 2026-05-05 13:12 | 35.00327 | 126.85174 | 23138 ft | 468 kts | 2° |
| 2026-05-05 13:12 | 35.02516 | 126.85411 | 23137 ft | 467 kts | 2° |
| 2026-05-05 13:12 | 35.05758 | 126.85761 | 23139 ft | 467 kts | 2° |
| 2026-05-05 13:12 | 35.08951 | 126.86107 | 23134 ft | 467 kts | 2° |
| 2026-05-05 13:13 | 35.12193 | 126.86458 | 23138 ft | 468 kts | 2° |
| 2026-05-05 13:13 | 35.15434 | 126.86809 | 23143 ft | 468 kts | 2° |
| 2026-05-05 13:13 | 35.18670 | 126.87160 | 23135 ft | 467 kts | 3° |
| 2026-05-05 13:13 | 35.21903 | 126.87511 | 23135 ft | 466 kts | 2° |
| 2026-05-05 13:14 | 35.25130 | 126.87862 | 23132 ft | 466 kts | 3° |
| 2026-05-05 13:14 | 35.28360 | 126.88213 | 23132 ft | 466 kts | 2° |
| 2026-05-05 13:14 | 35.31586 | 126.88564 | 23130 ft | 466 kts | 3° |
| 2026-05-05 13:14 | 35.34816 | 126.88916 | 23134 ft | 466 kts | 3° |
| 2026-05-05 13:15 | 35.37998 | 126.89263 | 23133 ft | 465 kts | 3° |
| 2026-05-05 13:15 | 35.41222 | 126.89615 | 23130 ft | 465 kts | 3° |
| 2026-05-05 13:15 | 35.44440 | 126.89966 | 23129 ft | 465 kts | 3° |
| 2026-05-05 13:15 | 35.47660 | 126.90318 | 23127 ft | 465 kts | 3° |
| 2026-05-05 13:16 | 35.50881 | 126.90671 | 23129 ft | 464 kts | 3° |
| 2026-05-05 13:16 | 35.54100 | 126.91023 | 23126 ft | 464 kts | 3° |
| 2026-05-05 13:16 | 35.57315 | 126.91373 | 23120 ft | 463 kts | 4° |
| 2026-05-05 13:16 | 35.60471 | 126.91719 | 23122 ft | 461 kts | 4° |
| 2026-05-05 13:17 | 35.63663 | 126.92069 | 23122 ft | 461 kts | 4° |
| 2026-05-05 13:17 | 35.66854 | 126.92419 | 23121 ft | 460 kts | 4° |
| 2026-05-05 13:17 | 35.70048 | 126.92769 | 23113 ft | 460 kts | 4° |
| 2026-05-05 13:17 | 35.73240 | 126.93120 | 23113 ft | 460 kts | 4° |
| 2026-05-05 13:18 | 35.76428 | 126.93470 | 23116 ft | 460 kts | 4° |
| 2026-05-05 13:18 | 35.79613 | 126.93820 | 23117 ft | 459 kts | 4° |
| 2026-05-05 13:18 | 35.82797 | 126.94170 | 23116 ft | 459 kts | 4° |
| 2026-05-05 13:18 | 35.85937 | 126.94516 | 23117 ft | 459 kts | 4° |
| 2026-05-05 13:19 | 35.89117 | 126.94867 | 23117 ft | 459 kts | 4° |
| 2026-05-05 13:19 | 35.92301 | 126.95218 | 23117 ft | 459 kts | 4° |
| 2026-05-05 13:19 | 35.95449 | 126.95566 | 23116 ft | 459 kts | 5° |
| 2026-05-05 13:19 | 35.98625 | 126.95917 | 23117 ft | 458 kts | 5° |
| 2026-05-05 13:20 | 36.01797 | 126.96268 | 23117 ft | 458 kts | 5° |
| 2026-05-05 13:20 | 36.04967 | 126.96619 | 23116 ft | 457 kts | 5° |
| 2026-05-05 13:20 | 36.08136 | 126.96971 | 23112 ft | 457 kts | 5° |
| 2026-05-05 13:20 | 36.11266 | 126.97318 | 23109 ft | 457 kts | 5° |
| 2026-05-05 13:21 | 36.14433 | 126.97670 | 23115 ft | 457 kts | 5° |
| 2026-05-05 13:21 | 36.17601 | 126.98021 | 23110 ft | 457 kts | 5° |
| 2026-05-05 13:21 | 36.20763 | 126.98371 | 23061 ft | 459 kts | 5° |
| 2026-05-05 13:21 | 36.23968 | 126.98728 | 22793 ft | 464 kts | 5° |
| 2026-05-05 13:22 | 36.27180 | 126.99088 | 22523 ft | 463 kts | 5° |
| 2026-05-05 13:22 | 36.30383 | 126.99447 | 22260 ft | 461 kts | 5° |
| 2026-05-05 13:22 | 36.33578 | 126.99804 | 21998 ft | 461 kts | 5° |
| 2026-05-05 13:22 | 36.36766 | 127.00152 | 21739 ft | 459 kts | 3° |
| 2026-05-05 13:23 | 36.39913 | 127.00236 | 21486 ft | 458 kts | 360° |
| 2026-05-05 13:23 | 36.43093 | 127.00210 | 21232 ft | 456 kts | 359° |
| 2026-05-05 13:23 | 36.46261 | 127.00130 | 20974 ft | 454 kts | 358° |
| 2026-05-05 13:23 | 36.49383 | 127.00021 | 20517 ft | 445 kts | 358° |
| 2026-05-05 13:24 | 36.52481 | 126.99897 | 20267 ft | 447 kts | 358° |
| 2026-05-05 13:24 | 36.55595 | 126.99769 | 20002 ft | 447 kts | 358° |
| 2026-05-05 13:24 | 36.58674 | 126.99648 | 19450 ft | 439 kts | 358° |
| 2026-05-05 13:24 | 36.61714 | 126.99534 | 18774 ft | 436 kts | 358° |
| 2026-05-05 13:25 | 36.64692 | 126.99425 | 18062 ft | 432 kts | 358° |
| 2026-05-05 13:25 | 36.67685 | 126.99317 | 17369 ft | 428 kts | 358° |
| 2026-05-05 13:25 | 36.70643 | 126.99211 | 16629 ft | 424 kts | 358° |
| 2026-05-05 13:25 | 36.73589 | 126.99093 | 15811 ft | 422 kts | 357° |
| 2026-05-05 13:26 | 36.76500 | 126.98865 | 15085 ft | 418 kts | 356° |
| 2026-05-05 13:26 | 36.79386 | 126.98597 | 14350 ft | 414 kts | 356° |
| 2026-05-05 13:26 | 36.82249 | 126.98327 | 13597 ft | 410 kts | 356° |
| 2026-05-05 13:26 | 36.85049 | 126.98066 | 12802 ft | 407 kts | 355° |
| 2026-05-05 13:27 | 36.87859 | 126.97805 | 12215 ft | 403 kts | 355° |
| 2026-05-05 13:27 | 36.90653 | 126.97546 | 11965 ft | 402 kts | 355° |
| 2026-05-05 13:27 | 36.93444 | 126.97287 | 11925 ft | 402 kts | 355° |
| 2026-05-05 13:27 | 36.96230 | 126.97030 | 11923 ft | 402 kts | 355° |
| 2026-05-05 13:28 | 36.99012 | 126.96773 | 11927 ft | 401 kts | 355° |
| 2026-05-05 13:28 | 37.01804 | 126.96515 | 11929 ft | 401 kts | 355° |
| 2026-05-05 13:28 | 37.04587 | 126.96257 | 11970 ft | 401 kts | 355° |
| 2026-05-05 13:28 | 37.07333 | 126.95903 | 11556 ft | 391 kts | 349° |
| 2026-05-05 13:29 | 37.09892 | 126.95000 | 10809 ft | 373 kts | 335° |
| 2026-05-05 13:29 | 37.12050 | 126.93499 | 10443 ft | 347 kts | 325° |
| 2026-05-05 13:29 | 37.13964 | 126.91831 | 10151 ft | 324 kts | 322° |
| 2026-05-05 13:29 | 37.15724 | 126.90211 | 9846 ft | 304 kts | 321° |
| 2026-05-05 13:30 | 37.17385 | 126.88653 | 9322 ft | 293 kts | 321° |
| 2026-05-05 13:30 | 37.18994 | 126.87131 | 8724 ft | 287 kts | 321° |
| 2026-05-05 13:30 | 37.20572 | 126.85631 | 8152 ft | 284 kts | 320° |
| 2026-05-05 13:30 | 37.22161 | 126.84116 | 7959 ft | 289 kts | 320° |
| 2026-05-05 13:31 | 37.23769 | 126.82581 | 7976 ft | 291 kts | 321° |
| 2026-05-05 13:31 | 37.25357 | 126.81066 | 7967 ft | 290 kts | 320° |
| 2026-05-05 13:31 | 37.26961 | 126.79534 | 7968 ft | 289 kts | 320° |
| 2026-05-05 13:31 | 37.28565 | 126.78002 | 7968 ft | 289 kts | 320° |
| 2026-05-05 13:32 | 37.30165 | 126.76472 | 7974 ft | 289 kts | 320° |
| 2026-05-05 13:32 | 37.31768 | 126.74939 | 7966 ft | 289 kts | 320° |
| 2026-05-05 13:32 | 37.33369 | 126.73407 | 7969 ft | 289 kts | 320° |
| 2026-05-05 13:32 | 37.34968 | 126.71875 | 7969 ft | 288 kts | 320° |
| 2026-05-05 13:33 | 37.36511 | 126.70399 | 7966 ft | 270 kts | 320° |
| 2026-05-05 13:33 | 37.37955 | 126.69018 | 7948 ft | 253 kts | 320° |
| 2026-05-05 13:33 | 37.39341 | 126.67689 | 7628 ft | 249 kts | 320° |
| 2026-05-05 13:33 | 37.40696 | 126.66386 | 7264 ft | 248 kts | 320° |
| 2026-05-05 13:34 | 37.42060 | 126.65074 | 6919 ft | 246 kts | 320° |
| 2026-05-05 13:34 | 37.43417 | 126.63770 | 6555 ft | 245 kts | 320° |
| 2026-05-05 13:34 | 37.44764 | 126.62475 | 6158 ft | 243 kts | 319° |
| 2026-05-05 13:34 | 37.46110 | 126.61179 | 5724 ft | 244 kts | 319° |
| 2026-05-05 13:35 | 37.47463 | 126.59877 | 5305 ft | 245 kts | 320° |
| 2026-05-05 13:35 | 37.48815 | 126.58576 | 4920 ft | 244 kts | 320° |
| 2026-05-05 13:35 | 37.50161 | 126.57279 | 4516 ft | 244 kts | 319° |
| 2026-05-05 13:35 | 37.51492 | 126.55998 | 4133 ft | 243 kts | 319° |
| 2026-05-05 13:36 | 37.52834 | 126.54704 | 3931 ft | 243 kts | 319° |
| 2026-05-05 13:36 | 37.54196 | 126.53391 | 3968 ft | 251 kts | 320° |
| 2026-05-05 13:36 | 37.55730 | 126.52291 | 3966 ft | 258 kts | 341° |
| 2026-05-05 13:36 | 37.57475 | 126.52205 | 3967 ft | 250 kts | 14° |
| 2026-05-05 13:37 | 37.58968 | 126.53246 | 3993 ft | 243 kts | 39° |
| 2026-05-05 13:37 | 37.60150 | 126.54648 | 3987 ft | 227 kts | 44° |
| 2026-05-05 13:37 | 37.61260 | 126.56073 | 3562 ft | 231 kts | 45° |
| 2026-05-05 13:37 | 37.62396 | 126.57533 | 3012 ft | 239 kts | 45° |
| 2026-05-05 13:38 | 37.63570 | 126.59029 | 2802 ft | 241 kts | 45° |
| 2026-05-05 13:38 | 37.64753 | 126.60526 | 2765 ft | 241 kts | 45° |
| 2026-05-05 13:38 | 37.65892 | 126.62076 | 2759 ft | 240 kts | 60° |
| 2026-05-05 13:38 | 37.66266 | 126.64049 | 2770 ft | 231 kts | 101° |
| 2026-05-05 13:39 | 37.65753 | 126.65925 | 2589 ft | 226 kts | 121° |
| 2026-05-05 13:39 | 37.64854 | 126.67515 | 2296 ft | 221 kts | 139° |
| 2026-05-05 13:39 | 37.63744 | 126.68827 | 1995 ft | 216 kts | 141° |
| 2026-05-05 13:39 | 37.62689 | 126.70155 | 1708 ft | 215 kts | 139° |
| 2026-05-05 13:40 | 37.61637 | 126.71503 | 1413 ft | 216 kts | 139° |
| 2026-05-05 13:40 | 37.60624 | 126.72779 | 1141 ft | 200 kts | 138° |
| 2026-05-05 13:40 | 37.59679 | 126.73969 | 870 ft | 185 kts | 137° |
| 2026-05-05 13:40 | 37.58813 | 126.75061 | 636 ft | 168 kts | 135° |
| 2026-05-05 13:41 | 37.58026 | 126.76049 | 412 ft | 152 kts | 135° |
| 2026-05-05 13:41 | 37.57307 | 126.76952 | 212 ft | 141 kts | 134° |
| 2026-05-05 13:41 | 37.56620 | 126.77820 | 76 ft | 139 kts | 134° |
| 2026-05-05 13:41 | 37.56022 | 126.78570 | 55 ft | 97 kts | 135° |
| 2026-05-05 13:42 | 37.55673 | 126.79009 | 59 ft | 49 kts | 136° |
| 2026-05-05 13:42 | 37.55476 | 126.79327 | 59 ft | 43 kts | 111° |
| 2026-05-05 13:42 | 37.55435 | 126.79556 | 68 ft | 8 kts | 86° |
| 2026-05-05 13:42 | 37.55442 | 126.79619 | 68 ft | 7 kts | 74° |
| 2026-05-05 13:43 | 37.55466 | 126.79678 | 65 ft | 8 kts | 54° |
| 2026-05-05 13:43 | 37.55499 | 126.79777 | 64 ft | 17 kts | 89° |
| 2026-05-05 13:43 | 37.55462 | 126.79920 | 57 ft | 17 kts | 110° |
| 2026-05-05 13:43 | 37.55430 | 126.80052 | 62 ft | 14 kts | 95° |
| 2026-05-05 13:44 | 37.55455 | 126.80158 | 59 ft | 12 kts | 50° |
| 2026-05-05 13:44 | 37.55510 | 126.80230 | 64 ft | 11 kts | 45° |
| 2026-05-05 13:44 | 37.55563 | 126.80296 | 61 ft | 10 kts | 41° |
| 2026-05-05 13:44 | 37.55621 | 126.80341 | 65 ft | 10 kts | 36° |
| 2026-05-05 13:45 | 37.55659 | 126.80386 | 67 ft | 7 kts | 45° |
| 2026-05-05 13:45 | 37.55676 | 126.80407 | 60 ft | 5 kts | 45° |
| 2026-05-05 13:45 | 37.55686 | 126.80420 | 62 ft | 0 kts | 45° |